Time;durP1;ratioP1;P1;durP2;ratioP2;P2;SDS_P1;SDS_P2;PMS_P1;PMS_P2;Temp;Humidity;BMP_temperature;BMP_pressure;BME280_temperature;BME280_humidity;BME280_pressure;Samples;Min_cycle;Max_cycle;Signal;HPM_P1;HPM_P2
2020/12/10 08:53:12;;;;;;;8.20;3.07;;;5.30;99.90;;;;;;5015672;28;20209;-75
2020/12/10 08:55:41;;;;;;;5.63;2.80;;;5.20;99.90;;;;;;5015472;28;20221;-73
2020/12/10 08:58:13;;;;;;;8.60;3.10;;;5.00;99.90;;;;;;5015191;28;20328;-75
2020/12/10 09:00:39;;;;;;;8.50;2.90;;;5.00;99.90;;;;;;5015502;28;20672;-76
2020/12/10 09:03:06;;;;;;;7.27;3.20;;;5.20;99.90;;;;;;5015402;28;20255;-74
2020/12/10 09:05:34;;;;;;;5.47;2.67;;;5.40;99.90;;;;;;5015334;28;20248;-73
2020/12/10 09:08:07;;;;;;;10.37;2.73;;;5.70;99.90;;;;;;5015079;28;20461;-80
2020/12/10 09:10:34;;;;;;;6.17;2.87;;;5.80;99.90;;;;;;5011995;28;20206;-70
2020/12/10 09:13:01;;;;;;;10.97;2.70;;;5.90;99.90;;;;;;5015664;28;20213;-70
2020/12/10 09:15:28;;;;;;;5.67;2.60;;;5.80;99.90;;;;;;5009510;28;20234;-73
2020/12/10 09:17:55;;;;;;;6.43;2.70;;;5.90;99.90;;;;;;5013609;28;20233;-78
2020/12/10 09:20:37;;;;;;;4.40;2.20;;;6.00;99.90;;;;;;5013796;28;20213;-76
2020/12/10 09:23:04;;;;;;;6.33;3.00;;;6.10;99.90;;;;;;5014154;28;20217;-78
2020/12/10 09:25:30;;;;;;;6.90;2.60;;;6.20;99.90;;;;;;5013332;28;20229;-79
2020/12/10 09:28:17;;;;;;;5.90;2.40;;;6.30;99.90;;;;;;5014875;28;20265;-79
2020/12/10 09:30:45;;;;;;;5.37;2.87;;;6.30;99.90;;;;;;5013636;28;20213;-74
2020/12/10 09:35:57;;;;;;;4.70;2.30;;;6.20;99.90;;;;;;5007263;28;20212;-78
2020/12/10 09:38:24;;;;;;;4.37;2.27;;;6.10;99.90;;;;;;5013867;28;20260;-81
2020/12/10 09:41:07;;;;;;;5.63;2.40;;;6.00;99.90;;;;;;5012184;28;20221;-81
2020/12/10 09:43:35;;;;;;;5.57;2.40;;;6.20;99.90;;;;;;5012924;28;20691;-76
2020/12/10 09:48:43;;;;;;;5.60;2.40;;;6.20;99.90;;;;;;5012875;28;20205;-73
2020/12/10 09:51:11;;;;;;;7.80;2.43;;;6.00;99.90;;;;;;5013569;28;20206;-75
2020/12/10 09:53:42;;;;;;;5.30;2.50;;;5.90;99.90;;;;;;5012944;28;20240;-76
2020/12/10 09:58:43;;;;;;;7.40;2.40;;;6.00;99.90;;;;;;5013205;28;20240;-79
2020/12/10 10:01:12;;;;;;;3.50;2.10;;;6.20;99.90;;;;;;5013342;28;20220;-75
2020/12/10 10:03:38;;;;;;;5.17;2.50;;;6.40;99.90;;;;;;5012877;28;20268;-73
2020/12/10 10:11:31;;;;;;;4.27;2.77;;;6.50;99.90;;;;;;5009913;28;20267;-75
2020/12/10 10:13:58;;;;;;;5.00;2.27;;;6.40;99.90;;;;;;5012205;28;20681;-77
2020/12/10 10:16:28;;;;;;;7.30;2.60;;;6.70;99.90;;;;;;5012424;28;20209;-74
2020/12/10 10:18:54;;;;;;;4.07;2.10;;;6.80;99.90;;;;;;5014295;28;20240;-72
2020/12/10 10:21:22;;;;;;;4.60;2.30;;;6.90;99.90;;;;;;5014535;28;20220;-74
2020/12/10 10:24:04;;;;;;;4.17;2.33;;;6.90;99.90;;;;;;5014478;28;20225;-74
2020/12/10 10:26:30;;;;;;;5.63;2.80;;;7.00;99.90;;;;;;5014012;28;20568;-73
2020/12/10 10:31:42;;;;;;;5.60;2.60;;;6.90;99.90;;;;;;5014419;28;20206;-73
2020/12/10 10:34:11;;;;;;;5.53;2.40;;;6.70;99.90;;;;;;5014300;28;20637;-73
2020/12/10 10:49:59;;;;;;;6.73;2.70;;;6.90;99.90;;;;;;5131258;27;20914;-70
2020/12/10 10:55:09;;;;;;;5.13;2.03;;;6.60;99.90;;;;;;5130418;28;20688;-70
2020/12/10 11:00:24;;;;;;;3.87;2.10;;;6.70;99.90;;;;;;5130966;28;20792;-73
2020/12/10 11:02:52;;;;;;;5.23;2.40;;;6.90;99.90;;;;;;5130071;28;20207;-73
2020/12/10 11:05:19;;;;;;;5.47;1.93;;;7.00;99.90;;;;;;5130400;27;20595;-73
2020/12/10 11:07:45;;;;;;;4.70;2.37;;;7.00;99.90;;;;;;5131127;27;20212;-73
2020/12/10 11:10:12;;;;;;;4.60;1.83;;;7.00;99.90;;;;;;5130973;28;20563;-73
2020/12/10 11:12:41;;;;;;;6.90;2.00;;;7.10;99.90;;;;;;5130768;28;20554;-73
2020/12/10 11:15:08;;;;;;;5.00;2.20;;;6.90;99.90;;;;;;5130649;28;20267;-72
2020/12/10 11:17:34;;;;;;;5.37;2.10;;;7.00;99.90;;;;;;5130485;27;20225;-74
2020/12/10 11:20:02;;;;;;;4.30;2.57;;;7.10;99.90;;;;;;5130608;28;20212;-73
2020/12/10 11:22:29;;;;;;;5.87;2.30;;;7.20;99.90;;;;;;5130827;27;20259;-74
2020/12/10 11:27:45;;;;;;;5.60;1.87;;;7.40;99.90;;;;;;5129212;28;20209;-73
2020/12/10 11:30:32;;;;;;;3.97;2.33;;;7.40;99.90;;;;;;5130492;27;20200;-73
2020/12/10 11:32:58;;;;;;;6.87;2.30;;;7.40;99.90;;;;;;5129769;27;20201;-73
2020/12/10 11:35:25;;;;;;;5.43;2.23;;;7.50;99.90;;;;;;5130044;28;20250;-73
2020/12/10 11:41:04;;;;;;;4.67;2.30;;;7.50;99.90;;;;;;5130033;27;20555;-74
2020/12/10 11:43:30;;;;;;;6.57;2.53;;;7.60;99.90;;;;;;5130143;28;20567;-73
2020/12/10 11:45:56;;;;;;;5.40;2.03;;;7.50;99.90;;;;;;5130521;28;20208;-73
2020/12/10 11:48:26;;;;;;;8.00;2.43;;;7.30;99.90;;;;;;5130217;28;20213;-73
2020/12/10 12:07:03;;;;;;;5.47;3.10;;;7.20;99.90;;;;;;5152213;27;21042;-73
2020/12/10 12:09:29;;;;;;;5.37;2.47;;;6.10;99.90;;;;;;5148004;27;20196;-73
2020/12/10 12:11:56;;;;;;;5.03;2.60;;;6.10;99.90;;;;;;5152195;27;20207;-70
2020/12/10 12:17:50;;;;;;;6.37;2.17;;;6.10;99.90;;;;;;5150625;27;20199;-72
2020/12/10 12:20:17;;;;;;;5.50;2.67;;;6.00;99.90;;;;;;5151859;27;20281;-72
2020/12/10 12:22:44;;;;;;;3.47;2.13;;;5.90;99.90;;;;;;5151526;27;20219;-69
2020/12/10 12:25:16;;;;;;;4.97;2.57;;;6.00;99.90;;;;;;5151403;27;20220;-69
2020/12/10 12:27:57;;;;;;;4.53;2.10;;;6.00;99.90;;;;;;5151356;27;20204;-70
2020/12/10 12:33:04;;;;;;;8.83;3.20;;;6.00;99.90;;;;;;5150819;27;20200;-70
2020/12/10 12:38:17;;;;;;;6.17;2.50;;;6.20;99.90;;;;;;5151305;27;20192;-70
2020/12/10 12:40:45;;;;;;;9.40;3.80;;;6.30;99.90;;;;;;5151533;27;20200;-70
2020/12/10 12:43:28;;;;;;;5.13;2.50;;;6.10;99.90;;;;;;5151476;27;20211;-71
2020/12/10 12:49:14;;;;;;;4.13;2.30;;;6.20;99.90;;;;;;5150964;27;20204;-70
2020/12/10 12:51:40;;;;;;;7.93;2.10;;;6.30;99.90;;;;;;5151173;27;20204;-70
2020/12/10 12:54:07;;;;;;;5.73;2.33;;;6.30;99.90;;;;;;5150848;27;20216;-71
2020/12/10 12:56:33;;;;;;;5.17;2.43;;;6.10;99.90;;;;;;5151073;27;20207;-70
2020/12/10 12:59:01;;;;;;;4.70;2.37;;;6.30;99.90;;;;;;5151047;27;20223;-72
2020/12/10 13:01:27;;;;;;;5.17;2.53;;;6.40;99.90;;;;;;5151113;27;20203;-70
2020/12/10 13:04:16;;;;;;;5.03;2.57;;;6.60;99.90;;;;;;5150732;27;20220;-70
2020/12/10 13:06:45;;;;;;;7.10;2.63;;;6.50;99.90;;;;;;5163113;27;20298;-70
2020/12/10 13:09:12;;;;;;;6.03;2.33;;;6.40;99.90;;;;;;5157331;27;20210;-73
2020/12/10 13:11:46;;;;;;;5.33;2.50;;;6.50;99.90;;;;;;5157819;27;20219;-70
2020/12/10 13:14:37;;;;;;;4.73;2.57;;;6.50;99.90;;;;;;5157804;27;20273;-73
2020/12/10 13:17:07;;;;;;;5.80;2.37;;;6.70;99.90;;;;;;5156308;27;20211;-70
2020/12/10 13:20:19;;;;;;;5.40;2.50;;;6.80;99.90;;;;;;5157409;27;20248;-72
2020/12/10 13:22:46;;;;;;;6.70;2.70;;;6.90;99.90;;;;;;5157294;27;20211;-70
2020/12/10 13:25:13;;;;;;;7.17;2.40;;;6.90;99.90;;;;;;5157263;27;20288;-69
2020/12/10 13:28:00;;;;;;;4.90;1.90;;;6.80;99.90;;;;;;5157235;27;20200;-71
2020/12/10 13:30:41;;;;;;;5.00;2.10;;;6.90;99.90;;;;;;5157412;27;20196;-70
2020/12/10 13:33:07;;;;;;;5.90;2.50;;;6.90;99.90;;;;;;5153249;27;20207;-70
2020/12/10 13:35:33;;;;;;;5.03;2.23;;;7.00;99.90;;;;;;5157317;27;20719;-70
2020/12/10 13:38:00;;;;;;;4.00;2.10;;;7.00;99.90;;;;;;5157079;27;20201;-70
2020/12/10 13:43:07;;;;;;;5.90;2.70;;;6.90;99.90;;;;;;5155728;27;20662;-70
2020/12/10 13:45:34;;;;;;;5.07;1.97;;;7.10;99.90;;;;;;5156886;27;20220;-71
2020/12/10 13:48:15;;;;;;;6.90;2.17;;;7.00;99.90;;;;;;5153257;27;20203;-73
2020/12/10 13:53:28;;;;;;;5.33;2.40;;;6.80;99.90;;;;;;5145138;27;20222;-72
2020/12/10 13:55:55;;;;;;;7.47;2.57;;;6.70;99.90;;;;;;5167231;27;20226;-73
2020/12/10 13:58:21;;;;;;;4.30;2.20;;;6.70;99.90;;;;;;5156968;27;20208;-75
2020/12/10 14:03:28;;;;;;;4.30;2.20;;;6.90;99.90;;;;;;5174850;27;20663;-69
2020/12/10 14:06:17;;;;;;;4.90;2.47;;;6.70;99.90;;;;;;5177268;27;20211;-70
2020/12/10 14:08:43;;;;;;;7.37;2.53;;;6.50;99.90;;;;;;5177163;27;20199;-71
2020/12/10 14:11:11;;;;;;;8.33;3.27;;;6.30;99.90;;;;;;5177164;27;20199;-70
2020/12/10 14:13:38;;;;;;;5.70;2.50;;;6.10;99.90;;;;;;5166644;27;20203;-69
2020/12/10 14:16:04;;;;;;;5.73;2.40;;;6.30;99.90;;;;;;5171478;27;20234;-68
2020/12/10 14:18:33;;;;;;;5.63;2.43;;;6.50;99.90;;;;;;5162149;27;20299;-68
2020/12/10 14:20:59;;;;;;;6.13;2.27;;;6.60;99.90;;;;;;5171465;27;20203;-70
2020/12/10 14:23:25;;;;;;;6.00;2.60;;;6.50;99.90;;;;;;5163069;27;20200;-70
2020/12/10 14:25:52;;;;;;;3.87;2.30;;;6.60;99.90;;;;;;5170960;27;20203;-69
2020/12/10 14:28:19;;;;;;;10.20;2.80;;;6.60;99.90;;;;;;5166364;27;20203;-70
2020/12/10 14:30:45;;;;;;;5.20;2.20;;;6.50;99.90;;;;;;5166519;27;20302;-70
2020/12/10 14:33:11;;;;;;;9.60;3.33;;;6.30;99.90;;;;;;5164036;27;20551;-68
2020/12/10 14:38:44;;;;;;;5.63;2.87;;;6.40;99.90;;;;;;5157298;27;20211;-70
2020/12/10 14:41:35;;;;;;;8.50;2.47;;;6.20;99.90;;;;;;5161272;27;20203;-70
2020/12/10 14:44:07;;;;;;;7.70;3.03;;;6.10;99.90;;;;;;5161441;27;20242;-71
2020/12/10 14:46:38;;;;;;;7.63;2.63;;;6.00;99.90;;;;;;5170004;27;20295;-70
2020/12/10 14:49:04;;;;;;;5.00;2.60;;;6.10;99.90;;;;;;5162046;27;20207;-72
2020/12/10 14:51:30;;;;;;;5.10;2.47;;;6.20;99.90;;;;;;5159075;27;20218;-68
2020/12/10 14:53:59;;;;;;;9.17;2.93;;;6.30;99.90;;;;;;5164923;27;20224;-68
2020/12/10 14:56:26;;;;;;;4.87;2.80;;;6.30;99.90;;;;;;5166252;27;20230;-70
2020/12/10 14:59:13;;;;;;;5.17;2.63;;;6.40;99.90;;;;;;5166168;27;20199;-70
2020/12/10 15:04:22;;;;;;;4.73;2.27;;;6.00;99.90;;;;;;5165667;27;20231;-71
2020/12/10 15:06:49;;;;;;;7.70;3.20;;;5.80;99.90;;;;;;5165893;27;20203;-69
2020/12/10 15:09:15;;;;;;;5.67;2.53;;;5.70;99.90;;;;;;5156617;27;20200;-75
2020/12/10 15:14:46;;;;;;;5.07;2.67;;;6.00;99.90;;;;;;5174614;27;20354;-75
2020/12/10 15:17:16;;;;;;;6.27;2.53;;;6.00;99.90;;;;;;5169534;27;20234;-74
2020/12/10 15:19:59;;;;;;;9.67;2.33;;;6.10;99.90;;;;;;5176062;27;20195;-74
2020/12/10 15:22:25;;;;;;;6.00;3.00;;;6.00;99.90;;;;;;5175244;27;20195;-74
2020/12/10 15:27:32;;;;;;;10.53;3.10;;;5.60;99.90;;;;;;5174763;27;20716;-73
2020/12/10 15:29:59;;;;;;;6.67;2.60;;;5.20;99.90;;;;;;5175785;27;20195;-72
2020/12/10 15:35:08;;;;;;;7.77;3.30;;;5.10;99.90;;;;;;5153274;27;20295;-71
2020/12/10 15:37:41;;;;;;;6.83;3.13;;;5.00;99.90;;;;;;5157614;27;20212;-71
2020/12/10 15:40:08;;;;;;;5.77;2.83;;;4.80;99.90;;;;;;5145668;27;20205;-72
2020/12/10 15:42:34;;;;;;;7.47;3.00;;;4.70;99.90;;;;;;5139319;27;20203;-75
2020/12/10 15:45:01;;;;;;;9.37;3.77;;;4.90;99.90;;;;;;5136016;27;20232;-73
2020/12/10 15:47:27;;;;;;;8.97;3.93;;;5.00;99.90;;;;;;5134756;27;20208;-73
2020/12/10 15:49:53;;;;;;;7.47;3.40;;;5.10;99.90;;;;;;5136364;27;20209;-68
2020/12/10 15:52:20;;;;;;;7.17;3.03;;;5.20;99.90;;;;;;5136133;27;20196;-70
2020/12/10 15:54:56;;;;;;;7.77;2.80;;;5.20;99.90;;;;;;5155057;27;20266;-70
2020/12/10 15:57:42;;;;;;;9.13;3.03;;;5.10;99.90;;;;;;5154179;27;20295;-69
2020/12/10 16:00:17;;;;;;;7.30;3.00;;;5.10;99.90;;;;;;5147662;27;20548;-71
2020/12/10 16:02:43;;;;;;;7.67;2.80;;;5.10;99.90;;;;;;5154367;27;20606;-72
2020/12/10 16:05:17;;;;;;;6.43;2.60;;;5.10;99.90;;;;;;5154245;27;20242;-71
2020/12/10 16:07:44;;;;;;;8.60;3.43;;;5.00;99.90;;;;;;5153760;27;20195;-71
2020/12/10 16:10:11;;;;;;;6.50;2.90;;;5.00;99.90;;;;;;5154516;27;20211;-71
2020/12/10 16:15:20;;;;;;;8.73;4.17;;;4.80;99.90;;;;;;5152253;27;20318;-70
2020/12/10 16:17:54;;;;;;;6.10;3.30;;;4.80;99.90;;;;;;5153658;27;20661;-69
2020/12/10 16:20:21;;;;;;;7.90;3.50;;;4.60;99.90;;;;;;5153997;27;20235;-70
2020/12/10 16:22:47;;;;;;;6.47;3.13;;;4.50;99.90;;;;;;5153723;27;20553;-71
2020/12/10 16:25:13;;;;;;;6.83;2.97;;;4.50;99.90;;;;;;5153830;27;20705;-70
2020/12/10 16:27:39;;;;;;;8.13;3.77;;;4.30;99.90;;;;;;5154196;27;20200;-71
2020/12/10 16:30:06;;;;;;;10.80;3.33;;;4.20;99.90;;;;;;5153752;27;20200;-71
2020/12/10 16:32:33;;;;;;;10.40;3.70;;;4.20;99.90;;;;;;5154395;27;20196;-72
2020/12/10 16:35:00;;;;;;;9.90;4.40;;;4.20;99.90;;;;;;5152344;27;20238;-74
2020/12/10 16:37:26;;;;;;;8.30;3.77;;;4.20;99.90;;;;;;5169431;27;20210;-73
2020/12/10 16:39:52;;;;;;;8.73;3.13;;;4.20;99.90;;;;;;5153933;27;20211;-75
2020/12/10 16:42:19;;;;;;;13.80;4.43;;;4.30;99.90;;;;;;5173010;27;20199;-73
2020/12/10 16:44:45;;;;;;;10.40;4.17;;;4.10;99.90;;;;;;5157410;27;20315;-73
2020/12/10 16:47:11;;;;;;;7.70;3.83;;;4.00;99.90;;;;;;5157125;27;20204;-74
2020/12/10 16:49:39;;;;;;;9.70;4.23;;;4.00;99.90;;;;;;5156770;27;20207;-74
2020/12/10 16:52:05;;;;;;;10.43;4.00;;;4.00;99.90;;;;;;5157621;27;20203;-74
2020/12/10 16:54:31;;;;;;;8.27;4.00;;;3.90;99.90;;;;;;5156732;27;20224;-74
2020/12/10 16:56:57;;;;;;;11.73;4.30;;;3.90;99.90;;;;;;5157456;27;20291;-73
2020/12/10 16:59:23;;;;;;;8.20;4.27;;;3.80;99.90;;;;;;5156630;27;20200;-73
2020/12/10 17:01:50;;;;;;;8.53;3.97;;;3.90;99.90;;;;;;5156728;27;20200;-74
2020/12/10 17:04:17;;;;;;;7.67;4.10;;;3.90;99.90;;;;;;5156999;27;20220;-73
2020/12/10 17:06:44;;;;;;;11.07;3.43;;;4.00;99.90;;;;;;5156618;27;20245;-73
2020/12/10 17:09:10;;;;;;;8.70;3.43;;;3.90;99.90;;;;;;5153133;27;20207;-75
2020/12/10 17:11:37;;;;;;;9.30;3.87;;;3.80;99.90;;;;;;5167362;27;20210;-74
2020/12/10 17:14:04;;;;;;;14.67;4.43;;;3.80;99.90;;;;;;5177429;27;20590;-70
2020/12/10 17:16:30;;;;;;;9.93;4.17;;;3.80;99.90;;;;;;5178540;27;20226;-72
2020/12/10 17:18:58;;;;;;;10.50;4.20;;;3.70;99.90;;;;;;5162810;27;20204;-72
2020/12/10 17:21:24;;;;;;;6.93;3.77;;;3.70;99.90;;;;;;5155629;27;20231;-72
2020/12/10 17:23:52;;;;;;;11.13;4.83;;;3.70;99.90;;;;;;5156836;27;20229;-71
2020/12/10 17:26:19;;;;;;;12.60;4.23;;;3.60;99.90;;;;;;5157175;27;20618;-72
2020/12/10 17:28:45;;;;;;;8.53;4.07;;;3.70;99.90;;;;;;5156531;27;20200;-72
2020/12/10 17:31:16;;;;;;;7.10;3.87;;;3.50;99.90;;;;;;5156631;27;20204;-72
2020/12/10 17:33:42;;;;;;;9.77;4.37;;;3.50;99.90;;;;;;5156530;27;20200;-72
2020/12/10 17:36:08;;;;;;;10.00;4.67;;;3.50;99.90;;;;;;5156301;27;20235;-72
2020/12/10 17:38:35;;;;;;;11.03;4.50;;;3.40;99.90;;;;;;5156434;27;20211;-72
2020/12/10 17:41:02;;;;;;;8.43;4.40;;;3.30;99.90;;;;;;5155999;27;20204;-72
2020/12/10 17:43:28;;;;;;;9.80;4.47;;;3.30;99.90;;;;;;5155869;27;20204;-73
2020/12/10 17:45:54;;;;;;;9.30;4.37;;;3.40;99.90;;;;;;5156184;27;20219;-72
2020/12/10 17:48:20;;;;;;;8.97;4.70;;;3.40;99.90;;;;;;5156467;27;20210;-72
2020/12/10 17:50:47;;;;;;;8.43;4.33;;;3.40;99.90;;;;;;5156730;27;20204;-72
2020/12/10 17:53:13;;;;;;;10.13;4.17;;;3.40;99.90;;;;;;5156257;27;20531;-73
2020/12/10 17:55:39;;;;;;;8.47;3.83;;;3.40;99.90;;;;;;5155694;27;20704;-71
2020/12/10 17:58:06;;;;;;;9.13;4.30;;;3.30;99.90;;;;;;5156218;27;20203;-73
2020/12/10 18:00:32;;;;;;;11.53;5.43;;;3.30;99.90;;;;;;5156298;27;20204;-73
2020/12/10 18:02:58;;;;;;;11.07;4.73;;;3.20;99.90;;;;;;5156221;27;20712;-73
2020/12/10 18:05:25;;;;;;;8.23;4.10;;;3.10;99.90;;;;;;5156085;27;20231;-72
2020/12/10 18:07:51;;;;;;;11.93;5.27;;;3.20;99.90;;;;;;5156014;27;20558;-73
2020/12/10 18:10:17;;;;;;;12.23;5.10;;;3.20;99.90;;;;;;5156242;27;20204;-72
2020/12/10 18:12:43;;;;;;;11.43;4.53;;;3.20;99.90;;;;;;5162221;27;20200;-75
2020/12/10 18:15:11;;;;;;;9.03;4.77;;;3.20;99.90;;;;;;5157855;27;20232;-78
2020/12/10 18:17:37;;;;;;;11.43;4.30;;;3.20;99.90;;;;;;5158962;27;20245;-77
2020/12/10 18:20:03;;;;;;;8.03;4.40;;;3.10;99.90;;;;;;5158961;27;20196;-77
2020/12/10 18:22:29;;;;;;;7.83;3.87;;;3.20;99.90;;;;;;5157354;27;20200;-78
2020/12/10 18:24:55;;;;;;;11.73;4.90;;;3.20;99.90;;;;;;5157983;27;20697;-76
2020/12/10 18:27:22;;;;;;;8.80;4.40;;;3.10;99.90;;;;;;5158678;27;20294;-73
2020/12/10 18:29:48;;;;;;;11.30;5.10;;;3.00;99.90;;;;;;5158588;27;20196;-79
2020/12/10 18:32:15;;;;;;;7.93;4.20;;;3.10;99.90;;;;;;5157763;27;20203;-78
2020/12/10 18:34:41;;;;;;;10.37;4.50;;;3.00;99.90;;;;;;5156503;27;20224;-71
2020/12/10 18:37:11;;;;;;;8.33;4.20;;;3.10;99.90;;;;;;5155822;27;20293;-71
2020/12/10 18:39:37;;;;;;;8.53;4.77;;;3.10;99.90;;;;;;5155823;27;20252;-76
2020/12/10 18:42:03;;;;;;;8.20;4.23;;;3.20;99.90;;;;;;5155889;27;20201;-70
2020/12/10 18:44:31;;;;;;;6.40;3.63;;;3.20;99.90;;;;;;5155576;27;20224;-73
2020/12/10 18:46:57;;;;;;;10.57;4.57;;;3.10;99.90;;;;;;5155370;27;20204;-71
2020/12/10 18:49:24;;;;;;;8.30;4.13;;;3.00;99.90;;;;;;5155426;27;20203;-71
2020/12/10 18:51:50;;;;;;;10.20;3.97;;;3.10;99.90;;;;;;5155175;27;20204;-72
2020/12/10 18:54:17;;;;;;;12.50;4.43;;;3.10;99.90;;;;;;5155466;27;20216;-81
2020/12/10 18:56:43;;;;;;;10.60;4.23;;;3.00;99.90;;;;;;5155066;27;20239;-71
2020/12/10 18:59:09;;;;;;;12.07;5.00;;;3.10;99.90;;;;;;5154690;27;20200;-71
2020/12/10 19:01:38;;;;;;;10.23;3.97;;;3.10;99.90;;;;;;5154879;27;20208;-71
2020/12/10 19:04:05;;;;;;;11.20;4.70;;;3.10;99.90;;;;;;5154511;27;20220;-70
2020/12/10 19:06:32;;;;;;;11.97;5.47;;;3.10;99.90;;;;;;5154798;27;20571;-71
2020/12/10 19:08:58;;;;;;;10.27;4.43;;;3.00;99.90;;;;;;5154932;27;20199;-71
2020/12/10 19:11:25;;;;;;;8.33;4.17;;;3.10;99.90;;;;;;5154778;27;20231;-70
2020/12/10 19:13:52;;;;;;;8.90;4.37;;;3.20;99.90;;;;;;5155409;27;20224;-71
2020/12/10 19:16:19;;;;;;;11.77;5.53;;;3.10;99.90;;;;;;5154823;27;20228;-71
2020/12/10 19:18:45;;;;;;;11.27;4.60;;;3.10;99.90;;;;;;5154162;27;20559;-79
2020/12/10 19:21:11;;;;;;;8.13;4.07;;;3.20;99.90;;;;;;5153646;27;20211;-72
2020/12/10 19:23:39;;;;;;;11.27;4.57;;;3.20;99.90;;;;;;5154443;27;20582;-73
2020/12/10 19:26:05;;;;;;;10.50;4.17;;;3.20;99.90;;;;;;5154718;27;20223;-76
2020/12/10 19:28:32;;;;;;;8.93;4.47;;;3.20;99.90;;;;;;5154161;27;20566;-72
2020/12/10 19:30:58;;;;;;;7.70;4.40;;;3.30;99.90;;;;;;5154231;27;20891;-72
2020/12/10 19:33:25;;;;;;;8.80;4.03;;;3.30;99.90;;;;;;5154737;27;20200;-72
2020/12/10 19:35:51;;;;;;;11.90;4.63;;;3.40;99.90;;;;;;5154529;27;20232;-72
2020/12/10 19:38:18;;;;;;;8.27;3.93;;;3.50;99.90;;;;;;5154453;27;20211;-72
2020/12/10 19:40:45;;;;;;;10.23;4.80;;;3.50;99.90;;;;;;5154304;27;20204;-72
2020/12/10 19:43:11;;;;;;;8.53;4.43;;;3.50;99.90;;;;;;5154546;27;20204;-73
2020/12/10 19:45:40;;;;;;;8.70;4.20;;;3.40;99.90;;;;;;5131309;27;20587;-71
2020/12/10 19:48:06;;;;;;;8.83;4.13;;;3.40;99.90;;;;;;5133646;27;20235;-72
2020/12/10 19:50:36;;;;;;;8.53;4.13;;;3.40;99.90;;;;;;5142747;27;20566;-72
2020/12/10 19:53:02;;;;;;;8.07;4.07;;;3.40;99.90;;;;;;5154129;27;20257;-79
2020/12/10 19:55:30;;;;;;;8.63;4.33;;;3.40;99.90;;;;;;5154363;27;20234;-78
2020/12/10 19:57:57;;;;;;;7.97;3.73;;;3.30;99.90;;;;;;5154805;27;20200;-72
2020/12/10 20:00:25;;;;;;;8.20;4.27;;;3.30;99.90;;;;;;5153927;27;20570;-77
2020/12/10 20:02:51;;;;;;;9.03;4.23;;;3.20;99.90;;;;;;5154425;27;20204;-73
2020/12/10 20:05:17;;;;;;;7.90;4.43;;;3.10;99.90;;;;;;5153986;27;20235;-74
2020/12/10 20:07:43;;;;;;;10.67;4.27;;;3.30;99.90;;;;;;5157517;27;20211;-81
2020/12/10 20:10:09;;;;;;;9.10;4.40;;;3.30;99.90;;;;;;5156439;27;20200;-72
2020/12/10 20:12:36;;;;;;;9.40;4.17;;;3.30;99.90;;;;;;5155040;27;20211;-74
2020/12/10 20:15:03;;;;;;;7.87;3.90;;;3.20;99.90;;;;;;5154247;27;20216;-72
2020/12/10 20:17:30;;;;;;;10.97;4.57;;;3.20;99.90;;;;;;5157149;27;20200;-73
2020/12/10 20:19:56;;;;;;;11.03;4.67;;;3.00;99.90;;;;;;5158519;27;20192;-72
2020/12/10 20:22:24;;;;;;;7.07;4.37;;;3.00;99.90;;;;;;5158182;27;20200;-80
2020/12/10 20:24:51;;;;;;;7.20;4.23;;;3.10;99.90;;;;;;5158684;27;20274;-73
2020/12/10 20:27:17;;;;;;;7.50;4.13;;;3.00;99.90;;;;;;5158341;27;20208;-72
2020/12/10 20:29:46;;;;;;;8.60;4.43;;;3.00;99.90;;;;;;5158856;27;20211;-75
2020/12/10 20:32:14;;;;;;;8.00;4.30;;;3.00;99.90;;;;;;5158449;27;20204;-72
2020/12/10 20:34:40;;;;;;;15.23;5.17;;;3.00;99.90;;;;;;5158460;27;20216;-71
2020/12/10 20:37:10;;;;;;;11.87;4.87;;;3.00;99.90;;;;;;5158014;27;21002;-71
2020/12/10 20:39:36;;;;;;;11.87;4.80;;;2.90;99.90;;;;;;5157596;27;20673;-71
2020/12/10 20:42:02;;;;;;;13.87;4.63;;;2.80;99.90;;;;;;5157878;27;20208;-71
2020/12/10 20:44:28;;;;;;;10.43;5.33;;;2.70;99.90;;;;;;5158577;27;20227;-71
2020/12/10 20:46:56;;;;;;;7.47;4.47;;;2.70;99.90;;;;;;5157873;27;20204;-71
2020/12/10 20:49:24;;;;;;;9.13;4.70;;;2.70;99.90;;;;;;5158223;27;20230;-71
2020/12/10 20:51:50;;;;;;;9.83;4.63;;;2.70;99.90;;;;;;5157737;27;20200;-80
2020/12/10 20:54:18;;;;;;;9.83;4.67;;;2.70;99.90;;;;;;5157889;27;20224;-80
2020/12/10 20:56:45;;;;;;;8.17;4.47;;;2.50;99.90;;;;;;5158141;27;20288;-71
2020/12/10 20:59:11;;;;;;;12.57;4.97;;;2.60;99.90;;;;;;5158030;27;20200;-72
2020/12/10 21:01:37;;;;;;;11.73;4.90;;;2.70;99.90;;;;;;5157619;27;20196;-70
2020/12/10 21:04:04;;;;;;;11.17;4.90;;;2.70;99.90;;;;;;5157332;27;20224;-71
2020/12/10 21:06:31;;;;;;;10.30;4.70;;;2.60;99.90;;;;;;5157017;27;20214;-80
2020/12/10 21:08:58;;;;;;;9.70;5.63;;;2.60;99.90;;;;;;5157339;27;20200;-80
2020/12/10 21:11:26;;;;;;;8.90;5.67;;;2.50;99.90;;;;;;5157694;27;20211;-71
2020/12/10 21:13:54;;;;;;;11.43;5.83;;;2.50;99.90;;;;;;5155176;27;20725;-72
2020/12/10 21:16:21;;;;;;;10.27;5.43;;;2.50;99.90;;;;;;5157546;27;20228;-81
2020/12/10 21:18:48;;;;;;;8.67;5.43;;;2.50;99.90;;;;;;5157141;27;20239;-71
2020/12/10 21:21:14;;;;;;;10.43;5.20;;;2.50;99.90;;;;;;5157060;27;20203;-81
2020/12/10 21:23:41;;;;;;;9.30;5.10;;;2.50;99.90;;;;;;5156599;27;20226;-72
2020/12/10 21:26:11;;;;;;;9.10;4.73;;;2.50;99.90;;;;;;5157358;27;20479;-81
2020/12/10 21:28:38;;;;;;;12.03;5.03;;;2.40;99.90;;;;;;5155222;27;20208;-80
2020/12/10 21:31:04;;;;;;;10.10;4.70;;;2.40;99.90;;;;;;5157104;27;20685;-80
2020/12/10 21:33:30;;;;;;;12.37;5.73;;;2.50;99.90;;;;;;5156924;27;20562;-80
2020/12/10 21:35:56;;;;;;;11.63;5.70;;;2.50;99.90;;;;;;5157418;27;20227;-72
2020/12/10 21:38:22;;;;;;;12.47;5.77;;;2.60;99.90;;;;;;5157103;27;20559;-70
2020/12/10 21:40:50;;;;;;;9.87;5.17;;;2.60;99.90;;;;;;5156977;27;20211;-71
2020/12/10 21:43:16;;;;;;;11.43;5.17;;;2.60;99.90;;;;;;5157223;27;20196;-71
2020/12/10 21:45:42;;;;;;;13.10;5.57;;;2.70;99.90;;;;;;5156939;27;20242;-72
2020/12/10 21:48:08;;;;;;;11.53;5.10;;;2.70;99.90;;;;;;5156877;27;20200;-80
2020/12/10 21:50:37;;;;;;;13.10;5.97;;;2.80;99.90;;;;;;5157184;27;20561;-71
2020/12/10 21:53:03;;;;;;;12.37;5.67;;;2.80;99.90;;;;;;5157216;27;20245;-80
2020/12/10 21:55:29;;;;;;;9.33;4.83;;;2.80;99.90;;;;;;5156951;27;20231;-78
2020/12/10 21:57:56;;;;;;;11.40;5.53;;;2.90;99.90;;;;;;5156801;27;20200;-81
2020/12/10 22:00:22;;;;;;;12.87;4.97;;;2.80;99.90;;;;;;5156622;27;20208;-71
2020/12/10 22:02:49;;;;;;;13.83;5.43;;;2.80;99.90;;;;;;5156654;27;20600;-81
2020/12/10 22:05:16;;;;;;;9.87;4.93;;;2.90;99.90;;;;;;5156404;27;20232;-71
2020/12/10 22:07:42;;;;;;;11.00;5.27;;;2.90;99.90;;;;;;5156507;27;20200;-75
2020/12/10 22:10:09;;;;;;;12.27;5.40;;;2.80;99.90;;;;;;5157010;27;20196;-81
2020/12/10 22:12:35;;;;;;;12.37;4.97;;;2.80;99.90;;;;;;5156734;27;20205;-73
2020/12/10 22:15:02;;;;;;;11.43;5.13;;;2.80;99.90;;;;;;5156136;27;20260;-81
2020/12/10 22:17:28;;;;;;;12.73;5.73;;;2.70;99.90;;;;;;5153136;27;20231;-77
2020/12/10 22:19:54;;;;;;;9.27;4.97;;;2.70;99.90;;;;;;5152591;27;20562;-72
2020/12/10 22:22:20;;;;;;;11.10;5.50;;;2.70;99.90;;;;;;5155742;27;20200;-72
2020/12/10 22:24:47;;;;;;;12.57;5.60;;;2.60;99.90;;;;;;5155891;27;20239;-76
